Terminal Aerodrome Forecast
Issued by NWS

Home | Current Version | Previous Version | Text Only | Print | Product List | Glossary On
Versions: 1 2 3 4 5 6 7 8 9 10 11 12 13 14 15 16 17 18
000
FTUS43 KIND 051700
TAFBMG
TAF
KBMG 051720Z 0518/0618 13006KT P6SM SCT050 BKN200
     FM060000 15002KT P6SM SCT050
     FM060500 00000KT 3SM BR SKC
     FM061400 20007KT P6SM SCT040=

USA.gov is the U.S. government's official web portal to all federal, state and local government web resources and services.